To NAV CANADA Home Page Login to a new session Search on AWWS site Disclaimer Vers la page française équivalente Tips FAQ What's new on the site To the Forecasts and Observations / NOTAM section To "File a Flight Plan" website Publications and other links Update of the User's profile FIC Telephone Numbers My Weather Data Folder Route Weather Data Regional Weather Data Local Weather Data To the Forecasts and Observations / NOTAM section
Request Generated 10/21/2018 at 06:56:34 UTC . Weather information available at that time is displayed.

METAR/TAF

VICTORIA HARBOUR/BC /WATER    

LWIS CYWH 210600Z AUTO 36002KT 09/08 A3006=
LWIS CYWH 210500Z AUTO 36002KT 09/08 A3007=
METAR CYWH 210400Z 00000KT 15SM SKC 10/08 A3007 RMK SLP185=

*** REMARK        : Forecast period has ended; this was the last TAF issued
*** REMARQUE : La période de prévision est échue; ceci était le dernier TAF qui a été émis
TAF CYWH 202338Z 2100/2104 23005KT P6SM FEW006 SCT240
RMK NXT FCST WILL BE ISSUED AT 211415Z=
Your time UTC time
Weather data provided by Environment Canada and NAV CANADA